»·PEaware :: AAL319 KMSP-KPHX

AAL319 :: KMSP-KPHX

FLIGHT INFORMATION

Flight Status: Arrived
Operator:
American Airlines
More flights by this operator :: More flights under this callsign
Pilot: Gary S. (22984)
Aircraft: BOEING 737-800
(B738)
More flights by this aircraft type
Origin: KMSP Minneapolis-St Paul Intl
United States
Destination: KPHX Phoenix Sky Harbor Intl
United States
More flights between these airports :: More routes between these airports
Route: +SCHEP8 ONL KD63Y KD54W KD45U GUP EAGUL6
File this flight plan on PilotEdge
Remarks: NONE
Altitude:
(Current/Filed)
38,000ft
Speed:
(Current/Filed)
448kts
Departed: 11-Jan-19 01:27 PM
Arrived: 11-Jan-19 06:16 PM
Distance/Time
Traveled:
1107nm/4:49
Distance/Time
To Go:
Arrived

Flight Plot

Page will automatically refresh every two minutes.

Flight plan parsing failed; only flown route is shown


Map Options




Map Legend


Flown Route
Filed Route
Departure Airport
Arrival Airport
Navaid (VOR, NDB)
Fix

Horizontal Profiles

Position Reports

Time Latitude Longitude Heading Altitude Ground
Speed
11-Jan-19 13:25 42.614502 -98.324851 237 38140ft 353kts
11-Jan-19 13:26 42.593414 -98.378254 237 38145ft 353kts
11-Jan-19 13:27 42.573756 -98.427928 237 38144ft 352kts
11-Jan-19 13:28 42.551404 -98.484323 237 38136ft 353kts
11-Jan-19 13:29 42.530357 -98.537370 237 38141ft 352kts
11-Jan-19 13:30 42.509440 -98.589918 237 38138ft 353kts
11-Jan-19 13:31 42.487966 -98.643805 237 38137ft 353kts
11-Jan-19 13:32 42.469031 -98.690449 233 38150ft 351kts
11-Jan-19 13:33 42.443764 -98.732359 226 38159ft 349kts
11-Jan-19 13:34 42.418469 -98.774237 228 38146ft 347kts
11-Jan-19 13:35 42.392581 -98.816727 227 38150ft 349kts
11-Jan-19 13:36 42.366171 -98.860153 228 38146ft 349kts
11-Jan-19 13:38 42.341528 -98.900668 228 38139ft 350kts
11-Jan-19 13:39 42.314196 -98.945630 228 38145ft 360kts
11-Jan-19 13:40 42.286211 -98.991729 228 38145ft 367kts
11-Jan-19 13:41 42.257414 -99.039191 228 38139ft 375kts
11-Jan-19 13:42 42.228392 -99.087077 228 38146ft 382kts
11-Jan-19 13:43 42.198735 -99.136008 228 38133ft 389kts
11-Jan-19 13:44 42.169056 -99.185031 229 38122ft 388kts
11-Jan-19 13:45 42.143707 -99.226909 228 38117ft 388kts
11-Jan-19 13:46 42.143707 -99.226909 228 38117ft 388kts
11-Jan-19 13:47 42.119412 -99.267098 229 38110ft 388kts
11-Jan-19 13:48 42.088774 -99.317788 229 38097ft 388kts
11-Jan-19 13:49 42.055653 -99.372657 229 38089ft 388kts
11-Jan-19 13:50 42.023691 -99.425576 229 38091ft 388kts
11-Jan-19 13:51 41.993898 -99.475008 229 38096ft 388kts
11-Jan-19 13:52 41.963827 -99.524932 229 38089ft 388kts
11-Jan-19 13:53 41.936202 -99.570804 229 38090ft 389kts
11-Jan-19 13:54 41.905011 -99.622668 229 38080ft 388kts
11-Jan-19 13:55 41.878590 -99.666591 228 38101ft 389kts
11-Jan-19 13:56 41.848628 -99.716426 229 38100ft 389kts
11-Jan-19 13:57 41.820337 -99.763574 228 38093ft 388kts
11-Jan-19 13:57 41.797717 -99.801244 228 38098ft 389kts
11-Jan-19 13:58 41.769906 -99.847652 229 38099ft 388kts
11-Jan-19 13:59 41.741911 -99.894363 228 38096ft 388kts
11-Jan-19 14:01 41.698829 -99.966346 229 38099ft 388kts
11-Jan-19 14:02 41.665718 -100.021728 229 38102ft 389kts
11-Jan-19 14:02 41.637834 -100.068366 229 38096ft 388kts
11-Jan-19 14:03 41.604056 -100.124959 229 38096ft 388kts
11-Jan-19 14:04 41.569969 -100.182095 229 38099ft 388kts
11-Jan-19 14:05 41.536646 -100.237981 229 38101ft 388kts
11-Jan-19 14:06 41.502653 -100.295059 229 38094ft 388kts
11-Jan-19 14:07 41.469571 -100.350636 229 38089ft 388kts
11-Jan-19 14:08 41.448140 -100.386671 230 38104ft 394kts
11-Jan-19 14:09 41.419296 -100.435241 230 38089ft 397kts
11-Jan-19 14:10 41.390498 -100.483738 230 38093ft 397kts
11-Jan-19 14:11 41.362318 -100.531188 230 38089ft 396kts
11-Jan-19 14:12 41.333951 -100.579048 230 38088ft 397kts
11-Jan-19 14:13 41.307135 -100.624332 230 38086ft 397kts
11-Jan-19 14:14 41.279567 -100.670809 230 38088ft 397kts
11-Jan-19 14:15 41.252442 -100.716601 230 38086ft 397kts
11-Jan-19 14:16 41.226523 -100.760435 230 38090ft 397kts
11-Jan-19 14:17 41.199868 -100.805535 230 38088ft 397kts
11-Jan-19 14:18 41.173682 -100.849859 230 38087ft 400kts
11-Jan-19 14:19 41.147893 -100.893556 230 38086ft 402kts
11-Jan-19 14:20 41.119854 -100.941109 230 38086ft 405kts
11-Jan-19 14:21 41.091361 -100.989438 230 38087ft 407kts
11-Jan-19 14:22 41.063269 -101.037143 230 38087ft 411kts
11-Jan-19 14:23 41.035005 -101.085158 230 38088ft 413kts
11-Jan-19 14:24 41.005702 -101.134982 230 38091ft 414kts
11-Jan-19 14:25 40.975356 -101.186611 230 38097ft 415kts
11-Jan-19 14:26 40.945823 -101.236883 230 38096ft 416kts
11-Jan-19 14:27 40.916755 -101.286427 230 38095ft 416kts
11-Jan-19 14:28 40.891142 -101.330100 230 38093ft 416kts
11-Jan-19 14:29 40.859164 -101.384650 230 38090ft 416kts
11-Jan-19 14:30 40.829170 -101.435872 230 38083ft 416kts
11-Jan-19 14:31 40.799433 -101.486682 231 38076ft 416kts
11-Jan-19 14:32 40.769531 -101.537826 231 38073ft 416kts
11-Jan-19 14:33 40.739384 -101.589401 231 38079ft 415kts
11-Jan-19 14:34 40.708571 -101.642177 231 38078ft 416kts
11-Jan-19 14:35 40.679142 -101.692573 230 38082ft 415kts
11-Jan-19 14:36 40.647801 -101.746279 230 38078ft 416kts
11-Jan-19 14:37 40.617273 -101.798687 230 38077ft 415kts
11-Jan-19 14:38 40.587167 -101.850382 230 38082ft 416kts
11-Jan-19 14:39 40.556952 -101.902306 230 38087ft 415kts
11-Jan-19 14:40 40.526102 -101.955343 230 38094ft 416kts
11-Jan-19 14:41 40.493973 -102.009503 226 38094ft 415kts
11-Jan-19 14:42 40.459541 -102.054480 223 38095ft 414kts
11-Jan-19 14:43 40.425541 -102.099508 224 38099ft 415kts
11-Jan-19 14:44 40.391893 -102.143904 223 38097ft 414kts
11-Jan-19 14:45 40.358261 -102.188286 224 38099ft 415kts
11-Jan-19 14:46 40.325592 -102.231430 224 38100ft 414kts
11-Jan-19 14:47 40.293802 -102.273426 224 38099ft 415kts
11-Jan-19 14:48 40.261914 -102.315574 224 38098ft 415kts
11-Jan-19 14:49 40.232115 -102.354986 224 38097ft 414kts
11-Jan-19 14:50 40.199140 -102.398609 224 38097ft 414kts
11-Jan-19 14:51 40.166889 -102.441304 224 38094ft 414kts
11-Jan-19 14:52 40.139126 -102.478085 224 38098ft 414kts
11-Jan-19 14:53 40.120470 -102.502798 224 38097ft 414kts
11-Jan-19 14:54 40.101814 -102.527515 224 38096ft 415kts
11-Jan-19 14:55 40.081404 -102.554577 224 38096ft 414kts
11-Jan-19 14:56 40.053257 -102.591901 224 38094ft 415kts
11-Jan-19 14:57 40.025914 -102.628186 224 38094ft 415kts
11-Jan-19 14:58 40.000941 -102.661328 223 38094ft 415kts
11-Jan-19 14:59 39.977598 -102.692285 224 38096ft 415kts
11-Jan-19 15:00 39.960069 -102.715569 224 38097ft 415kts
11-Jan-19 15:01 39.942684 -102.738660 224 38094ft 414kts
11-Jan-19 15:02 39.924038 -102.763449 224 38095ft 414kts
11-Jan-19 15:03 39.904498 -102.789424 224 38098ft 415kts
11-Jan-19 15:04 39.877021 -102.825959 224 38107ft 414kts
11-Jan-19 15:05 39.849224 -102.862945 224 38101ft 414kts
11-Jan-19 15:06 39.816392 -102.906647 224 38101ft 415kts
11-Jan-19 15:07 39.782710 -102.951497 224 38103ft 414kts
11-Jan-19 15:08 39.750828 -102.993968 224 38102ft 416kts
11-Jan-19 15:09 39.716557 -103.039657 225 38101ft 418kts
11-Jan-19 15:10 39.680547 -103.087688 225 38102ft 421kts
11-Jan-19 15:11 39.644959 -103.135186 225 38097ft 423kts
11-Jan-19 15:12 39.610270 -103.181503 225 38091ft 426kts
11-Jan-19 15:13 39.577693 -103.225030 225 38085ft 427kts
11-Jan-19 15:14 39.544155 -103.269858 225 38077ft 427kts
11-Jan-19 15:15 39.510164 -103.315313 226 38072ft 427kts
11-Jan-19 15:16 39.476320 -103.360597 226 38072ft 427kts
11-Jan-19 15:17 39.442308 -103.406127 226 38071ft 427kts
11-Jan-19 15:18 39.405197 -103.455829 226 38071ft 427kts
11-Jan-19 15:19 39.368250 -103.505345 226 38070ft 427kts
11-Jan-19 15:20 39.331180 -103.555050 226 38070ft 427kts
11-Jan-19 15:21 39.294413 -103.604376 226 38070ft 427kts
11-Jan-19 15:22 39.259525 -103.651206 225 38070ft 427kts
11-Jan-19 15:23 39.228195 -103.693255 225 38072ft 427kts
11-Jan-19 15:24 39.193740 -103.739531 225 38072ft 427kts
11-Jan-19 15:25 39.158203 -103.787295 225 38073ft 427kts
11-Jan-19 15:26 39.123438 -103.834047 226 38071ft 427kts
11-Jan-19 15:27 39.089112 -103.880230 226 38072ft 427kts
11-Jan-19 15:28 39.054796 -103.926418 226 38071ft 427kts
11-Jan-19 15:29 39.019689 -103.973683 226 38074ft 427kts
11-Jan-19 15:30 38.980510 -104.026705 226 38078ft 427kts
11-Jan-19 15:31 38.925072 -104.100078 226 38083ft 427kts
11-Jan-19 15:32 38.876300 -104.164471 226 38091ft 428kts
11-Jan-19 15:33 38.840728 -104.211434 226 38091ft 428kts
11-Jan-19 15:34 38.811813 -104.249629 226 38091ft 428kts
11-Jan-19 15:35 38.780148 -104.291474 227 38091ft 428kts
11-Jan-19 15:36 38.746716 -104.335679 227 38090ft 427kts
11-Jan-19 15:37 38.715362 -104.377156 227 38090ft 428kts
11-Jan-19 15:38 38.682366 -104.420828 227 38083ft 428kts
11-Jan-19 15:39 38.652001 -104.461038 227 38071ft 428kts
11-Jan-19 15:40 38.618900 -104.504890 227 38060ft 428kts
11-Jan-19 15:41 38.585337 -104.549380 227 38049ft 428kts
11-Jan-19 15:42 38.551651 -104.594055 227 38039ft 428kts
11-Jan-19 15:43 38.518897 -104.637516 227 38038ft 427kts
11-Jan-19 15:44 38.488607 -104.677717 226 38044ft 428kts
11-Jan-19 15:45 38.455776 -104.721311 226 38045ft 428kts
11-Jan-19 15:46 38.422980 -104.764896 226 38045ft 428kts
11-Jan-19 15:47 38.389930 -104.808834 227 38043ft 428kts
11-Jan-19 15:48 38.359769 -104.848957 227 38043ft 428kts
11-Jan-19 15:49 38.326131 -104.893721 227 38043ft 428kts
11-Jan-19 15:51 38.294107 -104.936357 227 38045ft 429kts
11-Jan-19 15:52 38.278762 -104.956798 227 38045ft 429kts
11-Jan-19 15:53 38.249393 -104.995931 227 38046ft 430kts
11-Jan-19 15:54 38.216847 -105.039320 227 38044ft 432kts
11-Jan-19 15:55 38.187888 -105.077944 228 38043ft 433kts
11-Jan-19 15:56 38.156008 -105.120478 228 38045ft 434kts
11-Jan-19 15:57 38.124710 -105.162267 228 38046ft 434kts
11-Jan-19 15:58 38.093863 -105.203466 228 38044ft 434kts
11-Jan-19 15:59 38.063084 -105.244588 228 38041ft 434kts
11-Jan-19 16:00 38.032880 -105.284970 228 38037ft 434kts
11-Jan-19 16:01 38.004983 -105.322288 228 38034ft 435kts
11-Jan-19 16:02 37.975841 -105.361267 228 38026ft 434kts
11-Jan-19 16:03 37.945762 -105.401530 228 38026ft 434kts
11-Jan-19 16:04 37.915279 -105.442371 228 38025ft 435kts
11-Jan-19 16:05 37.886934 -105.480327 228 38027ft 434kts
11-Jan-19 16:06 37.858540 -105.518391 228 38029ft 434kts
11-Jan-19 16:07 37.831068 -105.555222 228 38024ft 434kts
11-Jan-19 16:08 37.804778 -105.590482 228 38024ft 434kts
11-Jan-19 16:09 37.776911 -105.627867 228 38022ft 434kts
11-Jan-19 16:09 37.756920 -105.654654 229 38024ft 434kts
11-Jan-19 16:10 37.729823 -105.691032 230 38038ft 436kts
11-Jan-19 16:11 37.701505 -105.729095 229 38036ft 435kts
11-Jan-19 16:13 37.669577 -105.772015 230 38038ft 435kts
11-Jan-19 16:13 37.649810 -105.798588 230 38036ft 435kts
11-Jan-19 16:14 37.620089 -105.838568 230 38037ft 435kts
11-Jan-19 16:15 37.589145 -105.880205 230 38037ft 435kts
11-Jan-19 16:16 37.557722 -105.922473 230 38035ft 435kts
11-Jan-19 16:17 37.528606 -105.961679 230 38039ft 435kts
11-Jan-19 16:18 37.504096 -105.994688 230 38034ft 435kts
11-Jan-19 16:19 37.477381 -106.032677 232 38038ft 434kts
11-Jan-19 16:20 37.446411 -106.076505 230 38037ft 435kts
11-Jan-19 16:21 37.429080 -106.100459 231 38035ft 435kts
11-Jan-19 16:22 37.406080 -106.132646 231 38036ft 434kts
11-Jan-19 16:23 37.379621 -106.169592 231 38035ft 434kts
11-Jan-19 16:24 37.350805 -106.209834 231 38034ft 434kts
11-Jan-19 16:25 37.317774 -106.256025 231 38033ft 435kts
11-Jan-19 16:26 37.282989 -106.304664 231 38034ft 434kts
11-Jan-19 16:27 37.247504 -106.354341 231 38036ft 435kts
11-Jan-19 16:28 37.212702 -106.403067 231 38043ft 434kts
11-Jan-19 16:29 37.169608 -106.463473 231 38048ft 434kts
11-Jan-19 16:30 37.129091 -106.520285 231 38057ft 434kts
11-Jan-19 16:31 37.092622 -106.571444 232 38060ft 433kts
11-Jan-19 16:32 37.054524 -106.624946 232 38063ft 432kts
11-Jan-19 16:33 37.011718 -106.685096 232 38070ft 431kts
11-Jan-19 16:34 36.967529 -106.747227 233 38067ft 429kts
11-Jan-19 16:35 36.930007 -106.800044 233 38069ft 429kts
11-Jan-19 16:36 36.896087 -106.847812 233 38064ft 429kts
11-Jan-19 16:37 36.860518 -106.897933 234 38062ft 431kts
11-Jan-19 16:38 36.818872 -106.956668 234 38060ft 432kts
11-Jan-19 16:39 36.768203 -107.028157 235 38062ft 434kts
11-Jan-19 16:40 36.730313 -107.081691 235 38059ft 435kts
11-Jan-19 16:41 36.693802 -107.133286 235 38061ft 435kts
11-Jan-19 16:42 36.657485 -107.184636 235 38057ft 435kts
11-Jan-19 16:43 36.621678 -107.235303 235 38055ft 435kts
11-Jan-19 16:44 36.585013 -107.287210 235 38060ft 435kts
11-Jan-19 16:45 36.548320 -107.339198 235 38060ft 434kts
11-Jan-19 16:46 36.509361 -107.394441 235 38064ft 434kts
11-Jan-19 16:47 36.468917 -107.451825 235 38060ft 436kts
11-Jan-19 16:48 36.426474 -107.512059 235 38062ft 435kts
11-Jan-19 16:49 36.381885 -107.575437 235 38058ft 435kts
11-Jan-19 16:50 36.335126 -107.641908 236 38060ft 435kts
11-Jan-19 16:51 36.285710 -107.712199 235 38074ft 435kts
11-Jan-19 16:52 36.239523 -107.778018 235 38070ft 436kts
11-Jan-19 16:53 36.196615 -107.839157 235 38066ft 436kts
11-Jan-19 16:54 36.154930 -107.898607 235 38065ft 436kts
11-Jan-19 16:55 36.111790 -107.960211 235 38071ft 434kts
11-Jan-19 16:56 36.069060 -108.021237 235 38066ft 434kts
11-Jan-19 16:57 36.025722 -108.083181 235 38076ft 433kts
11-Jan-19 16:58 35.980035 -108.148517 235 38102ft 432kts
11-Jan-19 16:59 35.931136 -108.218567 236 38134ft 434kts
11-Jan-19 17:00 35.888518 -108.279628 236 38128ft 435kts
11-Jan-19 17:01 35.833548 -108.358457 236 38130ft 434kts
11-Jan-19 17:02 35.787125 -108.425073 236 38127ft 434kts
11-Jan-19 17:03 35.741316 -108.490874 236 38131ft 435kts
11-Jan-19 17:04 35.694753 -108.557808 236 38130ft 434kts
11-Jan-19 17:05 35.649282 -108.623214 236 38132ft 435kts
11-Jan-19 17:06 35.606735 -108.684436 235 38142ft 436kts
11-Jan-19 17:07 35.563300 -108.746963 236 38137ft 434kts
11-Jan-19 17:08 35.518622 -108.811331 236 38132ft 434kts
11-Jan-19 17:09 35.476258 -108.872424 237 37993ft 421kts
11-Jan-19 17:10 35.438661 -108.935066 241 37422ft 404kts
11-Jan-19 17:11 35.397391 -109.005414 241 36836ft 411kts
11-Jan-19 17:12 35.361536 -109.065919 241 36303ft 408kts
11-Jan-19 17:13 35.330444 -109.118300 242 35835ft 406kts
11-Jan-19 17:14 35.299625 -109.170182 242 35384ft 406kts
11-Jan-19 17:15 35.268489 -109.222500 242 34933ft 408kts
11-Jan-19 17:16 35.233693 -109.280940 242 34414ft 408kts
11-Jan-19 17:17 35.192111 -109.350560 242 33784ft 407kts
11-Jan-19 17:18 35.153970 -109.414521 242 33230ft 413kts
11-Jan-19 17:19 35.112907 -109.483044 242 32634ft 414kts
11-Jan-19 17:20 35.072397 -109.550528 242 32047ft 419kts
11-Jan-19 17:21 35.032365 -109.617105 242 31469ft 420kts
11-Jan-19 17:22 34.995913 -109.677652 241 30958ft 424kts
11-Jan-19 17:23 34.957137 -109.741822 240 30442ft 420kts
11-Jan-19 17:24 34.916743 -109.808646 239 29901ft 424kts
11-Jan-19 17:25 34.869471 -109.886548 240 29200ft 413kts
11-Jan-19 17:26 34.821882 -109.964919 239 28499ft 413kts
11-Jan-19 17:27 34.780116 -110.033486 239 27856ft 403kts
11-Jan-19 17:28 34.737046 -110.104149 239 27215ft 406kts
11-Jan-19 17:29 34.694385 -110.173887 239 26552ft 399kts
11-Jan-19 17:30 34.654139 -110.239695 239 25932ft 395kts
11-Jan-19 17:31 34.614557 -110.304268 239 25322ft 393kts
11-Jan-19 17:32 34.577075 -110.365311 239 24735ft 391kts
11-Jan-19 17:33 34.540472 -110.424889 239 24156ft 389kts
11-Jan-19 17:34 34.503767 -110.484440 239 23569ft 385kts
11-Jan-19 17:35 34.467038 -110.543925 239 22981ft 382kts
11-Jan-19 17:36 34.428761 -110.605884 238 22364ft 379kts
11-Jan-19 17:37 34.396472 -110.657966 238 21834ft 377kts
11-Jan-19 17:38 34.362703 -110.712435 238 21307ft 375kts
11-Jan-19 17:39 34.327746 -110.768692 238 20762ft 373kts
11-Jan-19 17:40 34.292452 -110.825422 238 20302ft 370kts
11-Jan-19 17:41 34.263452 -110.871980 237 19834ft 369kts
11-Jan-19 17:42 34.234320 -110.918686 237 19365ft 367kts
11-Jan-19 17:43 34.204674 -110.966126 237 18892ft 366kts
11-Jan-19 17:44 34.174875 -111.013760 237 18408ft 364kts
11-Jan-19 17:45 34.145808 -111.060069 237 18045ft 341kts
11-Jan-19 17:46 34.116116 -111.103778 231 18084ft 340kts
11-Jan-19 17:47 34.083311 -111.145385 231 17693ft 345kts
11-Jan-19 17:48 34.046295 -111.192664 231 16514ft 343kts
11-Jan-19 17:49 34.013058 -111.235173 231 15588ft 337kts
11-Jan-19 17:50 33.976265 -111.282207 231 14579ft 331kts
11-Jan-19 17:51 33.939312 -111.329390 231 13679ft 323kts
11-Jan-19 17:52 33.911321 -111.365086 231 13121ft 316kts
11-Jan-19 17:53 33.885250 -111.398285 230 12589ft 308kts
11-Jan-19 17:54 33.849951 -111.432065 219 11838ft 311kts
11-Jan-19 17:55 33.809342 -111.465976 219 11003ft 306kts
11-Jan-19 17:57 33.772721 -111.497259 219 10422ft 296kts
11-Jan-19 17:58 33.732296 -111.531924 219 9750ft 288kts
11-Jan-19 17:59 33.694910 -111.563985 219 9056ft 284kts
11-Jan-19 18:00 33.658452 -111.595226 219 8374ft 280kts
11-Jan-19 18:01 33.621277 -111.626755 218 7492ft 274kts
11-Jan-19 18:02 33.585269 -111.656853 217 6498ft 259kts
11-Jan-19 18:03 33.551339 -111.685132 217 5905ft 230kts
11-Jan-19 18:04 33.523468 -111.708649 217 5287ft 226kts
11-Jan-19 18:05 33.495752 -111.732018 217 4879ft 214kts
11-Jan-19 18:06 33.471315 -111.752702 220 4544ft 205kts
11-Jan-19 18:07 33.455622 -111.777771 241 4216ft 196kts
11-Jan-19 18:08 33.440698 -111.811378 243 3823ft 192kts
11-Jan-19 18:09 33.437939 -111.840605 280 3519ft 185kts
11-Jan-19 18:10 33.440239 -111.871102 272 3103ft 183kts
11-Jan-19 18:11 33.440654 -111.900572 270 2681ft 182kts
11-Jan-19 18:12 33.440743 -111.934949 270 2119ft 186kts
11-Jan-19 18:13 33.440797 -111.971157 270 1521ft 184kts
11-Jan-19 18:14 33.440811 -112.000733 270 1132ft 142kts
11-Jan-19 18:15 33.440882 -112.016331 270 1123ft 47kts
11-Jan-19 18:15 33.439675 -112.020992 177 1120ft 22kts
11-Jan-19 18:16 33.439090 -112.019420 96 1120ft 0kts
11-Jan-19 18:18 33.439090 -112.019420 96 1120ft 0kts
11-Jan-19 18:19 33.439059 -112.019082 96 1120ft 2kts
11-Jan-19 18:19 33.439058 -112.019074 96 1120ft 0kts
11-Jan-19 18:20 33.439039 -112.015561 91 1123ft 51kts
11-Jan-19 18:21 33.438944 -112.006437 91 1130ft 48kts
11-Jan-19 18:22 33.438763 -112.001028 134 1130ft 2kts
11-Jan-19 18:23 33.438281 -111.999961 131 1130ft 0kts
11-Jan-19 18:24 33.438281 -111.999961 131 1130ft 0kts
11-Jan-19 18:25 33.438256 -111.999922 125 1130ft 0kts
11-Jan-19 18:26 33.438228 -111.999877 126 1130ft 0kts
11-Jan-19 18:27 33.438228 -111.999877 126 1130ft 0kts

Navigation Log

Ident Type
Flight plan parsing failed, navigation log unavailable